sensor_id;sensor_type;location;lat;lon;timestamp;P1;durP1;ratioP1;P2;durP2;ratioP2
20411;SDS011;10365;52.578;8.138;2022-08-19T00:00:13;24.00;;;15.55;;
20411;SDS011;10365;52.578;8.138;2022-08-19T00:02:39;23.85;;;15.15;;
20411;SDS011;10365;52.578;8.138;2022-08-19T00:05:05;24.67;;;14.63;;
20411;SDS011;10365;52.578;8.138;2022-08-19T00:07:30;28.88;;;15.07;;
20411;SDS011;10365;52.578;8.138;2022-08-19T00:09:56;24.80;;;15.45;;
20411;SDS011;10365;52.578;8.138;2022-08-19T00:12:21;25.25;;;15.52;;
20411;SDS011;10365;52.578;8.138;2022-08-19T00:14:47;27.55;;;14.93;;
20411;SDS011;10365;52.578;8.138;2022-08-19T00:17:12;24.52;;;15.02;;
20411;SDS011;10365;52.578;8.138;2022-08-19T00:19:38;29.38;;;14.07;;
20411;SDS011;10365;52.578;8.138;2022-08-19T00:22:03;21.42;;;12.63;;
20411;SDS011;10365;52.578;8.138;2022-08-19T00:24:30;18.45;;;12.85;;
20411;SDS011;10365;52.578;8.138;2022-08-19T00:26:56;18.90;;;12.43;;
20411;SDS011;10365;52.578;8.138;2022-08-19T00:29:23;20.27;;;12.57;;
20411;SDS011;10365;52.578;8.138;2022-08-19T00:31:49;24.90;;;12.93;;
20411;SDS011;10365;52.578;8.138;2022-08-19T00:34:15;22.60;;;13.98;;
20411;SDS011;10365;52.578;8.138;2022-08-19T00:36:41;21.02;;;13.48;;
20411;SDS011;10365;52.578;8.138;2022-08-19T00:39:07;21.88;;;14.70;;
20411;SDS011;10365;52.578;8.138;2022-08-19T00:41:32;25.73;;;15.60;;
20411;SDS011;10365;52.578;8.138;2022-08-19T00:44:15;28.75;;;15.60;;
20411;SDS011;10365;52.578;8.138;2022-08-19T00:46:42;31.15;;;16.48;;
20411;SDS011;10365;52.578;8.138;2022-08-19T00:49:15;28.20;;;16.40;;
20411;SDS011;10365;52.578;8.138;2022-08-19T00:51:43;30.02;;;17.85;;
20411;SDS011;10365;52.578;8.138;2022-08-19T00:54:09;32.85;;;19.15;;
20411;SDS011;10365;52.578;8.138;2022-08-19T00:56:35;31.63;;;19.15;;
20411;SDS011;10365;52.578;8.138;2022-08-19T00:59:01;26.20;;;16.15;;
20411;SDS011;10365;52.578;8.138;2022-08-19T01:01:27;31.75;;;17.30;;
20411;SDS011;10365;52.578;8.138;2022-08-19T01:03:52;29.90;;;18.73;;
20411;SDS011;10365;52.578;8.138;2022-08-19T01:06:18;28.25;;;17.70;;
20411;SDS011;10365;52.578;8.138;2022-08-19T01:08:43;27.65;;;17.35;;
20411;SDS011;10365;52.578;8.138;2022-08-19T01:11:09;26.90;;;16.48;;
20411;SDS011;10365;52.578;8.138;2022-08-19T01:13:35;29.85;;;17.77;;
20411;SDS011;10365;52.578;8.138;2022-08-19T01:16:03;34.72;;;18.30;;
20411;SDS011;10365;52.578;8.138;2022-08-19T01:18:30;30.73;;;18.02;;
20411;SDS011;10365;52.578;8.138;2022-08-19T01:20:58;32.15;;;19.58;;
20411;SDS011;10365;52.578;8.138;2022-08-19T01:23:24;36.35;;;19.13;;
20411;SDS011;10365;52.578;8.138;2022-08-19T01:26:08;32.63;;;18.38;;
20411;SDS011;10365;52.578;8.138;2022-08-19T01:28:35;32.92;;;18.80;;
20411;SDS011;10365;52.578;8.138;2022-08-19T01:31:01;27.90;;;17.92;;
20411;SDS011;10365;52.578;8.138;2022-08-19T01:33:26;36.83;;;19.00;;
20411;SDS011;10365;52.578;8.138;2022-08-19T01:35:51;35.33;;;18.20;;
20411;SDS011;10365;52.578;8.138;2022-08-19T01:38:25;33.25;;;18.50;;
20411;SDS011;10365;52.578;8.138;2022-08-19T01:40:50;30.85;;;17.23;;
20411;SDS011;10365;52.578;8.138;2022-08-19T01:43:16;33.95;;;17.00;;
20411;SDS011;10365;52.578;8.138;2022-08-19T01:45:44;38.47;;;18.60;;
20411;SDS011;10365;52.578;8.138;2022-08-19T01:48:09;36.28;;;18.92;;
20411;SDS011;10365;52.578;8.138;2022-08-19T01:50:35;31.73;;;18.40;;
20411;SDS011;10365;52.578;8.138;2022-08-19T01:53:02;31.00;;;16.98;;
20411;SDS011;10365;52.578;8.138;2022-08-19T01:55:29;31.77;;;17.52;;
20411;SDS011;10365;52.578;8.138;2022-08-19T01:57:55;33.30;;;18.40;;
20411;SDS011;10365;52.578;8.138;2022-08-19T02:00:22;28.10;;;16.80;;
20411;SDS011;10365;52.578;8.138;2022-08-19T02:02:48;41.80;;;18.92;;
20411;SDS011;10365;52.578;8.138;2022-08-19T02:05:13;35.25;;;19.27;;
20411;SDS011;10365;52.578;8.138;2022-08-19T02:07:39;36.72;;;20.83;;
20411;SDS011;10365;52.578;8.138;2022-08-19T02:10:09;32.28;;;18.05;;
20411;SDS011;10365;52.578;8.138;2022-08-19T02:12:35;29.42;;;16.52;;
20411;SDS011;10365;52.578;8.138;2022-08-19T02:15:01;37.30;;;18.50;;
20411;SDS011;10365;52.578;8.138;2022-08-19T02:17:28;33.53;;;18.20;;
20411;SDS011;10365;52.578;8.138;2022-08-19T02:19:54;28.60;;;16.88;;
20411;SDS011;10365;52.578;8.138;2022-08-19T02:22:20;27.52;;;15.68;;
20411;SDS011;10365;52.578;8.138;2022-08-19T02:24:45;29.35;;;16.00;;
20411;SDS011;10365;52.578;8.138;2022-08-19T02:27:11;31.65;;;17.27;;
20411;SDS011;10365;52.578;8.138;2022-08-19T02:29:37;34.58;;;17.40;;
20411;SDS011;10365;52.578;8.138;2022-08-19T02:32:02;30.27;;;16.65;;
20411;SDS011;10365;52.578;8.138;2022-08-19T02:34:29;31.05;;;16.85;;
20411;SDS011;10365;52.578;8.138;2022-08-19T02:36:54;28.83;;;16.70;;
20411;SDS011;10365;52.578;8.138;2022-08-19T02:39:20;34.70;;;18.00;;
20411;SDS011;10365;52.578;8.138;2022-08-19T02:41:45;35.80;;;17.98;;
20411;SDS011;10365;52.578;8.138;2022-08-19T02:44:11;36.55;;;18.98;;
20411;SDS011;10365;52.578;8.138;2022-08-19T02:46:39;35.80;;;18.27;;
20411;SDS011;10365;52.578;8.138;2022-08-19T02:49:06;33.40;;;17.60;;
20411;SDS011;10365;52.578;8.138;2022-08-19T02:51:33;36.17;;;18.35;;
20411;SDS011;10365;52.578;8.138;2022-08-19T02:53:59;34.97;;;18.38;;
20411;SDS011;10365;52.578;8.138;2022-08-19T02:56:25;42.17;;;20.95;;
20411;SDS011;10365;52.578;8.138;2022-08-19T02:58:53;45.33;;;22.77;;
20411;SDS011;10365;52.578;8.138;2022-08-19T03:01:19;44.80;;;22.95;;
20411;SDS011;10365;52.578;8.138;2022-08-19T03:03:45;50.13;;;25.25;;
20411;SDS011;10365;52.578;8.138;2022-08-19T03:06:13;63.53;;;26.58;;
20411;SDS011;10365;52.578;8.138;2022-08-19T03:08:39;59.15;;;27.30;;
20411;SDS011;10365;52.578;8.138;2022-08-19T03:11:05;72.93;;;26.55;;
20411;SDS011;10365;52.578;8.138;2022-08-19T03:13:31;78.55;;;29.35;;
20411;SDS011;10365;52.578;8.138;2022-08-19T03:15:56;64.72;;;27.48;;
20411;SDS011;10365;52.578;8.138;2022-08-19T03:18:22;60.72;;;26.27;;
20411;SDS011;10365;52.578;8.138;2022-08-19T03:20:48;73.47;;;28.50;;
20411;SDS011;10365;52.578;8.138;2022-08-19T03:23:14;71.00;;;28.98;;
20411;SDS011;10365;52.578;8.138;2022-08-19T03:25:41;78.72;;;30.85;;
20411;SDS011;10365;52.578;8.138;2022-08-19T03:28:08;112.00;;;30.42;;
20411;SDS011;10365;52.578;8.138;2022-08-19T03:30:33;71.18;;;30.75;;
20411;SDS011;10365;52.578;8.138;2022-08-19T03:32:59;72.57;;;29.52;;
20411;SDS011;10365;52.578;8.138;2022-08-19T03:35:25;90.63;;;30.33;;
20411;SDS011;10365;52.578;8.138;2022-08-19T03:37:51;89.50;;;32.78;;
20411;SDS011;10365;52.578;8.138;2022-08-19T03:40:16;71.95;;;30.50;;
20411;SDS011;10365;52.578;8.138;2022-08-19T03:42:44;70.00;;;28.80;;
20411;SDS011;10365;52.578;8.138;2022-08-19T03:45:09;56.20;;;26.17;;
20411;SDS011;10365;52.578;8.138;2022-08-19T03:47:35;55.60;;;26.13;;
20411;SDS011;10365;52.578;8.138;2022-08-19T03:50:02;83.47;;;27.95;;
20411;SDS011;10365;52.578;8.138;2022-08-19T03:52:28;80.43;;;31.02;;
20411;SDS011;10365;52.578;8.138;2022-08-19T03:54:53;69.75;;;29.63;;
20411;SDS011;10365;52.578;8.138;2022-08-19T03:57:19;82.65;;;28.70;;
20411;SDS011;10365;52.578;8.138;2022-08-19T03:59:44;96.63;;;26.98;;
20411;SDS011;10365;52.578;8.138;2022-08-19T04:02:11;79.82;;;27.17;;
20411;SDS011;10365;52.578;8.138;2022-08-19T04:04:37;66.38;;;27.40;;
20411;SDS011;10365;52.578;8.138;2022-08-19T04:07:03;67.22;;;26.45;;
20411;SDS011;10365;52.578;8.138;2022-08-19T04:09:29;65.95;;;27.20;;
20411;SDS011;10365;52.578;8.138;2022-08-19T04:11:55;65.07;;;25.98;;
20411;SDS011;10365;52.578;8.138;2022-08-19T04:14:26;67.80;;;26.67;;
20411;SDS011;10365;52.578;8.138;2022-08-19T04:16:54;78.10;;;28.40;;
20411;SDS011;10365;52.578;8.138;2022-08-19T04:19:20;58.60;;;26.98;;
20411;SDS011;10365;52.578;8.138;2022-08-19T04:21:46;68.30;;;28.88;;
20411;SDS011;10365;52.578;8.138;2022-08-19T04:24:13;68.60;;;28.05;;
20411;SDS011;10365;52.578;8.138;2022-08-19T04:26:38;66.97;;;27.77;;
20411;SDS011;10365;52.578;8.138;2022-08-19T04:29:05;64.15;;;26.55;;
20411;SDS011;10365;52.578;8.138;2022-08-19T04:31:31;74.68;;;28.70;;
20411;SDS011;10365;52.578;8.138;2022-08-19T04:34:00;62.00;;;26.33;;
20411;SDS011;10365;52.578;8.138;2022-08-19T04:36:27;63.65;;;27.35;;
20411;SDS011;10365;52.578;8.138;2022-08-19T04:38:54;63.50;;;27.67;;
20411;SDS011;10365;52.578;8.138;2022-08-19T04:41:20;59.63;;;25.63;;
20411;SDS011;10365;52.578;8.138;2022-08-19T04:44:04;61.85;;;26.65;;
20411;SDS011;10365;52.578;8.138;2022-08-19T04:46:30;67.25;;;26.67;;
20411;SDS011;10365;52.578;8.138;2022-08-19T04:49:00;64.75;;;28.02;;
20411;SDS011;10365;52.578;8.138;2022-08-19T04:51:26;70.53;;;26.25;;
20411;SDS011;10365;52.578;8.138;2022-08-19T04:53:51;69.22;;;27.60;;
20411;SDS011;10365;52.578;8.138;2022-08-19T04:56:18;75.53;;;28.08;;
20411;SDS011;10365;52.578;8.138;2022-08-19T04:58:45;68.95;;;28.15;;
20411;SDS011;10365;52.578;8.138;2022-08-19T05:01:12;75.22;;;28.50;;
20411;SDS011;10365;52.578;8.138;2022-08-19T05:03:38;68.50;;;28.13;;
20411;SDS011;10365;52.578;8.138;2022-08-19T05:06:10;98.30;;;28.13;;
20411;SDS011;10365;52.578;8.138;2022-08-19T05:08:37;81.57;;;30.00;;
20411;SDS011;10365;52.578;8.138;2022-08-19T05:11:10;80.95;;;30.90;;
20411;SDS011;10365;52.578;8.138;2022-08-19T05:13:36;88.43;;;32.20;;
20411;SDS011;10365;52.578;8.138;2022-08-19T05:16:01;102.60;;;31.85;;
20411;SDS011;10365;52.578;8.138;2022-08-19T05:18:27;104.20;;;33.33;;
20411;SDS011;10365;52.578;8.138;2022-08-19T05:21:13;101.95;;;30.33;;
20411;SDS011;10365;52.578;8.138;2022-08-19T05:23:57;93.00;;;33.40;;
20411;SDS011;10365;52.578;8.138;2022-08-19T05:26:23;86.60;;;32.58;;
20411;SDS011;10365;52.578;8.138;2022-08-19T05:28:51;82.72;;;31.30;;
20411;SDS011;10365;52.578;8.138;2022-08-19T05:31:16;77.75;;;30.05;;
20411;SDS011;10365;52.578;8.138;2022-08-19T05:33:42;69.57;;;28.52;;
20411;SDS011;10365;52.578;8.138;2022-08-19T05:36:07;66.43;;;28.70;;
20411;SDS011;10365;52.578;8.138;2022-08-19T05:38:33;68.07;;;26.98;;
20411;SDS011;10365;52.578;8.138;2022-08-19T05:40:59;61.15;;;27.45;;
20411;SDS011;10365;52.578;8.138;2022-08-19T05:43:24;59.03;;;25.15;;
20411;SDS011;10365;52.578;8.138;2022-08-19T05:45:50;48.28;;;22.85;;
20411;SDS011;10365;52.578;8.138;2022-08-19T05:48:19;51.88;;;24.33;;
20411;SDS011;10365;52.578;8.138;2022-08-19T05:50:45;53.70;;;23.92;;
20411;SDS011;10365;52.578;8.138;2022-08-19T05:53:12;53.65;;;25.40;;
20411;SDS011;10365;52.578;8.138;2022-08-19T05:55:38;54.80;;;26.67;;
20411;SDS011;10365;52.578;8.138;2022-08-19T05:58:04;59.63;;;24.98;;
20411;SDS011;10365;52.578;8.138;2022-08-19T06:00:33;46.83;;;23.52;;
20411;SDS011;10365;52.578;8.138;2022-08-19T06:02:58;43.70;;;23.92;;
20411;SDS011;10365;52.578;8.138;2022-08-19T06:05:28;42.90;;;22.35;;
20411;SDS011;10365;52.578;8.138;2022-08-19T06:07:53;37.38;;;20.38;;
20411;SDS011;10365;52.578;8.138;2022-08-19T06:10:19;36.00;;;20.83;;
20411;SDS011;10365;52.578;8.138;2022-08-19T06:12:46;32.42;;;19.27;;
20411;SDS011;10365;52.578;8.138;2022-08-19T06:15:12;27.48;;;17.55;;
20411;SDS011;10365;52.578;8.138;2022-08-19T06:17:38;25.17;;;16.27;;
20411;SDS011;10365;52.578;8.138;2022-08-19T06:20:05;20.55;;;14.52;;
20411;SDS011;10365;52.578;8.138;2022-08-19T06:22:31;25.80;;;15.80;;
20411;SDS011;10365;52.578;8.138;2022-08-19T06:24:58;21.85;;;15.90;;
20411;SDS011;10365;52.578;8.138;2022-08-19T06:27:23;19.88;;;13.60;;
20411;SDS011;10365;52.578;8.138;2022-08-19T06:29:49;18.08;;;13.05;;
20411;SDS011;10365;52.578;8.138;2022-08-19T06:32:15;18.17;;;14.40;;
20411;SDS011;10365;52.578;8.138;2022-08-19T06:34:41;18.77;;;13.95;;
20411;SDS011;10365;52.578;8.138;2022-08-19T06:37:07;19.27;;;13.60;;
20411;SDS011;10365;52.578;8.138;2022-08-19T06:39:34;18.55;;;13.93;;
20411;SDS011;10365;52.578;8.138;2022-08-19T06:42:01;20.42;;;13.82;;
20411;SDS011;10365;52.578;8.138;2022-08-19T06:44:29;18.02;;;13.70;;
20411;SDS011;10365;52.578;8.138;2022-08-19T06:47:02;21.17;;;14.80;;
20411;SDS011;10365;52.578;8.138;2022-08-19T06:49:28;23.52;;;15.45;;
20411;SDS011;10365;52.578;8.138;2022-08-19T06:51:56;25.60;;;14.13;;
20411;SDS011;10365;52.578;8.138;2022-08-19T06:54:22;20.27;;;14.60;;
20411;SDS011;10365;52.578;8.138;2022-08-19T06:56:48;19.25;;;14.25;;
20411;SDS011;10365;52.578;8.138;2022-08-19T06:59:15;17.30;;;13.52;;
20411;SDS011;10365;52.578;8.138;2022-08-19T07:01:45;22.30;;;15.27;;
20411;SDS011;10365;52.578;8.138;2022-08-19T07:04:12;16.48;;;12.32;;
20411;SDS011;10365;52.578;8.138;2022-08-19T07:06:38;14.93;;;10.98;;
20411;SDS011;10365;52.578;8.138;2022-08-19T07:09:04;13.32;;;8.55;;
20411;SDS011;10365;52.578;8.138;2022-08-19T07:11:30;10.82;;;8.93;;
20411;SDS011;10365;52.578;8.138;2022-08-19T07:13:56;10.63;;;7.68;;
20411;SDS011;10365;52.578;8.138;2022-08-19T07:16:21;8.85;;;7.45;;
20411;SDS011;10365;52.578;8.138;2022-08-19T07:18:47;9.35;;;8.35;;
20411;SDS011;10365;52.578;8.138;2022-08-19T07:21:15;14.15;;;7.20;;
20411;SDS011;10365;52.578;8.138;2022-08-19T07:23:41;13.40;;;9.77;;
20411;SDS011;10365;52.578;8.138;2022-08-19T07:26:28;12.40;;;8.73;;
20411;SDS011;10365;52.578;8.138;2022-08-19T07:28:52;9.85;;;5.93;;
20411;SDS011;10365;52.578;8.138;2022-08-19T07:31:19;13.07;;;9.10;;
20411;SDS011;10365;52.578;8.138;2022-08-19T07:33:45;12.82;;;9.43;;
20411;SDS011;10365;52.578;8.138;2022-08-19T07:36:12;12.13;;;9.93;;
20411;SDS011;10365;52.578;8.138;2022-08-19T07:38:41;10.52;;;9.05;;
20411;SDS011;10365;52.578;8.138;2022-08-19T07:41:09;7.90;;;6.30;;
20411;SDS011;10365;52.578;8.138;2022-08-19T07:43:35;8.65;;;7.38;;
20411;SDS011;10365;52.578;8.138;2022-08-19T07:46:00;8.82;;;7.32;;
20411;SDS011;10365;52.578;8.138;2022-08-19T07:48:26;8.35;;;7.53;;
20411;SDS011;10365;52.578;8.138;2022-08-19T07:50:52;18.67;;;9.02;;
20411;SDS011;10365;52.578;8.138;2022-08-19T07:53:19;8.43;;;7.50;;
20411;SDS011;10365;52.578;8.138;2022-08-19T07:55:45;10.95;;;8.80;;
20411;SDS011;10365;52.578;8.138;2022-08-19T07:58:11;11.85;;;8.60;;
20411;SDS011;10365;52.578;8.138;2022-08-19T08:00:37;11.48;;;8.85;;
20411;SDS011;10365;52.578;8.138;2022-08-19T08:03:03;11.75;;;8.52;;
20411;SDS011;10365;52.578;8.138;2022-08-19T08:05:29;10.65;;;9.55;;
20411;SDS011;10365;52.578;8.138;2022-08-19T08:08:13;14.98;;;9.80;;
20411;SDS011;10365;52.578;8.138;2022-08-19T08:10:58;11.27;;;8.82;;
20411;SDS011;10365;52.578;8.138;2022-08-19T08:13:24;13.18;;;9.27;;
20411;SDS011;10365;52.578;8.138;2022-08-19T08:15:49;8.00;;;6.50;;
20411;SDS011;10365;52.578;8.138;2022-08-19T08:18:15;10.38;;;8.02;;
20411;SDS011;10365;52.578;8.138;2022-08-19T08:20:40;10.93;;;8.93;;
20411;SDS011;10365;52.578;8.138;2022-08-19T08:23:06;13.20;;;8.77;;
20411;SDS011;10365;52.578;8.138;2022-08-19T08:25:50;7.75;;;6.60;;
20411;SDS011;10365;52.578;8.138;2022-08-19T08:28:17;11.32;;;7.60;;
20411;SDS011;10365;52.578;8.138;2022-08-19T08:30:42;11.88;;;8.30;;
20411;SDS011;10365;52.578;8.138;2022-08-19T08:33:09;8.48;;;6.40;;
20411;SDS011;10365;52.578;8.138;2022-08-19T08:35:34;11.48;;;9.48;;
20411;SDS011;10365;52.578;8.138;2022-08-19T08:38:00;11.38;;;9.95;;
20411;SDS011;10365;52.578;8.138;2022-08-19T08:40:38;9.00;;;7.00;;
20411;SDS011;10365;52.578;8.138;2022-08-19T08:45:36;13.20;;;7.40;;
20411;SDS011;10365;52.578;8.138;2022-08-19T08:48:18;10.55;;;6.25;;
20411;SDS011;10365;52.578;8.138;2022-08-19T08:50:46;13.80;;;8.80;;
20411;SDS011;10365;52.578;8.138;2022-08-19T08:53:14;11.73;;;9.05;;
20411;SDS011;10365;52.578;8.138;2022-08-19T08:55:41;9.10;;;7.68;;
20411;SDS011;10365;52.578;8.138;2022-08-19T08:58:10;9.80;;;8.80;;
20411;SDS011;10365;52.578;8.138;2022-08-19T09:00:40;9.98;;;8.52;;
20411;SDS011;10365;52.578;8.138;2022-08-19T09:03:18;10.27;;;5.85;;
20411;SDS011;10365;52.578;8.138;2022-08-19T09:11:08;9.02;;;6.53;;
20411;SDS011;10365;52.578;8.138;2022-08-19T09:13:37;9.43;;;6.93;;
20411;SDS011;10365;52.578;8.138;2022-08-19T09:16:07;9.32;;;7.55;;
20411;SDS011;10365;52.578;8.138;2022-08-19T09:18:41;18.63;;;9.93;;
20411;SDS011;10365;52.578;8.138;2022-08-19T09:21:07;18.02;;;10.55;;
20411;SDS011;10365;52.578;8.138;2022-08-19T09:23:35;8.48;;;6.65;;
20411;SDS011;10365;52.578;8.138;2022-08-19T09:26:00;12.48;;;9.45;;
20411;SDS011;10365;52.578;8.138;2022-08-19T09:28:27;11.20;;;8.40;;
20411;SDS011;10365;52.578;8.138;2022-08-19T09:30:53;9.85;;;7.00;;
20411;SDS011;10365;52.578;8.138;2022-08-19T09:33:19;10.00;;;8.60;;
20411;SDS011;10365;52.578;8.138;2022-08-19T09:35:44;11.15;;;7.80;;
20411;SDS011;10365;52.578;8.138;2022-08-19T09:38:10;13.20;;;9.05;;
20411;SDS011;10365;52.578;8.138;2022-08-19T09:40:35;12.70;;;6.63;;
20411;SDS011;10365;52.578;8.138;2022-08-19T09:43:01;7.95;;;7.15;;
20411;SDS011;10365;52.578;8.138;2022-08-19T09:45:28;8.90;;;7.40;;
20411;SDS011;10365;52.578;8.138;2022-08-19T09:47:54;7.00;;;4.78;;
20411;SDS011;10365;52.578;8.138;2022-08-19T09:50:20;8.70;;;6.80;;
20411;SDS011;10365;52.578;8.138;2022-08-19T09:52:45;11.20;;;7.43;;
20411;SDS011;10365;52.578;8.138;2022-08-19T09:55:11;10.63;;;7.95;;
20411;SDS011;10365;52.578;8.138;2022-08-19T09:57:37;10.88;;;7.05;;
20411;SDS011;10365;52.578;8.138;2022-08-19T10:00:05;10.52;;;7.28;;
20411;SDS011;10365;52.578;8.138;2022-08-19T10:02:32;8.93;;;7.18;;
20411;SDS011;10365;52.578;8.138;2022-08-19T10:04:58;11.15;;;7.15;;
20411;SDS011;10365;52.578;8.138;2022-08-19T10:07:42;10.30;;;8.10;;
20411;SDS011;10365;52.578;8.138;2022-08-19T10:10:08;10.32;;;7.85;;
20411;SDS011;10365;52.578;8.138;2022-08-19T10:12:34;9.65;;;7.80;;
20411;SDS011;10365;52.578;8.138;2022-08-19T10:15:00;12.05;;;8.23;;
20411;SDS011;10365;52.578;8.138;2022-08-19T10:17:26;12.40;;;7.10;;
20411;SDS011;10365;52.578;8.138;2022-08-19T10:19:53;11.18;;;7.55;;
20411;SDS011;10365;52.578;8.138;2022-08-19T10:22:18;8.23;;;6.82;;
20411;SDS011;10365;52.578;8.138;2022-08-19T10:27:14;9.95;;;7.82;;
20411;SDS011;10365;52.578;8.138;2022-08-19T10:29:40;8.38;;;7.32;;
20411;SDS011;10365;52.578;8.138;2022-08-19T10:32:06;10.68;;;8.48;;
20411;SDS011;10365;52.578;8.138;2022-08-19T10:34:34;10.90;;;6.00;;
20411;SDS011;10365;52.578;8.138;2022-08-19T10:37:01;10.88;;;8.00;;
20411;SDS011;10365;52.578;8.138;2022-08-19T10:39:27;8.90;;;7.18;;
20411;SDS011;10365;52.578;8.138;2022-08-19T10:41:54;7.55;;;5.50;;
20411;SDS011;10365;52.578;8.138;2022-08-19T10:44:21;8.52;;;7.43;;
20411;SDS011;10365;52.578;8.138;2022-08-19T10:46:48;14.60;;;7.20;;
20411;SDS011;10365;52.578;8.138;2022-08-19T10:49:14;7.90;;;6.50;;
20411;SDS011;10365;52.578;8.138;2022-08-19T10:51:39;9.07;;;5.68;;
20411;SDS011;10365;52.578;8.138;2022-08-19T10:54:24;9.43;;;5.72;;
20411;SDS011;10365;52.578;8.138;2022-08-19T10:57:10;10.32;;;6.45;;
20411;SDS011;10365;52.578;8.138;2022-08-19T10:59:35;8.68;;;5.07;;
20411;SDS011;10365;52.578;8.138;2022-08-19T11:02:12;7.53;;;5.47;;
20411;SDS011;10365;52.578;8.138;2022-08-19T11:04:38;6.40;;;4.22;;
20411;SDS011;10365;52.578;8.138;2022-08-19T11:07:06;4.53;;;3.15;;
20411;SDS011;10365;52.578;8.138;2022-08-19T11:09:31;5.78;;;2.90;;
20411;SDS011;10365;52.578;8.138;2022-08-19T11:11:57;6.03;;;3.67;;
20411;SDS011;10365;52.578;8.138;2022-08-19T11:14:23;9.20;;;3.30;;
20411;SDS011;10365;52.578;8.138;2022-08-19T11:16:49;5.38;;;4.30;;
20411;SDS011;10365;52.578;8.138;2022-08-19T11:19:15;8.40;;;4.25;;
20411;SDS011;10365;52.578;8.138;2022-08-19T11:21:43;4.05;;;3.33;;
20411;SDS011;10365;52.578;8.138;2022-08-19T11:24:10;6.03;;;4.63;;
20411;SDS011;10365;52.578;8.138;2022-08-19T11:26:36;4.32;;;3.22;;
20411;SDS011;10365;52.578;8.138;2022-08-19T11:29:02;3.75;;;3.00;;
20411;SDS011;10365;52.578;8.138;2022-08-19T11:31:29;4.15;;;2.80;;
20411;SDS011;10365;52.578;8.138;2022-08-19T11:34:00;7.45;;;3.90;;
20411;SDS011;10365;52.578;8.138;2022-08-19T11:36:27;7.00;;;4.32;;
20411;SDS011;10365;52.578;8.138;2022-08-19T11:38:53;5.22;;;3.28;;
20411;SDS011;10365;52.578;8.138;2022-08-19T11:41:20;5.07;;;3.78;;
20411;SDS011;10365;52.578;8.138;2022-08-19T11:43:45;6.47;;;4.10;;
20411;SDS011;10365;52.578;8.138;2022-08-19T11:46:12;5.10;;;4.05;;
20411;SDS011;10365;52.578;8.138;2022-08-19T11:48:38;5.05;;;3.42;;
20411;SDS011;10365;52.578;8.138;2022-08-19T11:51:05;5.93;;;3.60;;
20411;SDS011;10365;52.578;8.138;2022-08-19T11:53:34;5.38;;;3.25;;
20411;SDS011;10365;52.578;8.138;2022-08-19T11:55:59;4.80;;;3.90;;
20411;SDS011;10365;52.578;8.138;2022-08-19T11:58:25;8.75;;;4.80;;
20411;SDS011;10365;52.578;8.138;2022-08-19T12:00:51;6.78;;;4.15;;
20411;SDS011;10365;52.578;8.138;2022-08-19T12:03:17;5.00;;;3.80;;
20411;SDS011;10365;52.578;8.138;2022-08-19T12:05:43;7.10;;;3.85;;
20411;SDS011;10365;52.578;8.138;2022-08-19T12:08:09;4.80;;;3.53;;
20411;SDS011;10365;52.578;8.138;2022-08-19T12:10:35;4.53;;;2.45;;
20411;SDS011;10365;52.578;8.138;2022-08-19T12:13:01;5.70;;;3.10;;
20411;SDS011;10365;52.578;8.138;2022-08-19T12:15:27;7.57;;;3.03;;
20411;SDS011;10365;52.578;8.138;2022-08-19T12:17:54;6.80;;;4.20;;
20411;SDS011;10365;52.578;8.138;2022-08-19T12:20:22;5.53;;;4.90;;
20411;SDS011;10365;52.578;8.138;2022-08-19T12:22:47;6.10;;;4.18;;
20411;SDS011;10365;52.578;8.138;2022-08-19T12:25:13;5.53;;;3.78;;
20411;SDS011;10365;52.578;8.138;2022-08-19T12:27:39;4.35;;;3.22;;
20411;SDS011;10365;52.578;8.138;2022-08-19T12:30:05;7.43;;;3.03;;
20411;SDS011;10365;52.578;8.138;2022-08-19T12:32:32;6.53;;;2.35;;
20411;SDS011;10365;52.578;8.138;2022-08-19T12:34:57;2.80;;;2.50;;
20411;SDS011;10365;52.578;8.138;2022-08-19T12:37:23;3.85;;;2.13;;
20411;SDS011;10365;52.578;8.138;2022-08-19T12:39:48;3.92;;;2.65;;
20411;SDS011;10365;52.578;8.138;2022-08-19T12:42:14;2.58;;;2.10;;
20411;SDS011;10365;52.578;8.138;2022-08-19T12:44:40;4.57;;;2.50;;
20411;SDS011;10365;52.578;8.138;2022-08-19T12:47:06;4.95;;;2.58;;
20411;SDS011;10365;52.578;8.138;2022-08-19T12:49:33;2.45;;;1.98;;
20411;SDS011;10365;52.578;8.138;2022-08-19T12:51:59;3.53;;;2.20;;
20411;SDS011;10365;52.578;8.138;2022-08-19T12:54:25;10.80;;;2.92;;
20411;SDS011;10365;52.578;8.138;2022-08-19T12:56:51;5.55;;;2.85;;
20411;SDS011;10365;52.578;8.138;2022-08-19T12:59:16;4.38;;;2.40;;
20411;SDS011;10365;52.578;8.138;2022-08-19T13:01:43;3.58;;;2.60;;
20411;SDS011;10365;52.578;8.138;2022-08-19T13:04:09;3.90;;;2.38;;
20411;SDS011;10365;52.578;8.138;2022-08-19T13:06:35;9.93;;;2.33;;
20411;SDS011;10365;52.578;8.138;2022-08-19T13:09:01;7.32;;;2.22;;
20411;SDS011;10365;52.578;8.138;2022-08-19T13:11:27;2.90;;;1.80;;
20411;SDS011;10365;52.578;8.138;2022-08-19T13:13:58;4.70;;;1.83;;
20411;SDS011;10365;52.578;8.138;2022-08-19T13:16:25;4.93;;;2.05;;
20411;SDS011;10365;52.578;8.138;2022-08-19T13:18:52;3.17;;;1.80;;
20411;SDS011;10365;52.578;8.138;2022-08-19T13:21:19;2.80;;;1.83;;
20411;SDS011;10365;52.578;8.138;2022-08-19T13:23:48;2.90;;;1.73;;
20411;SDS011;10365;52.578;8.138;2022-08-19T13:26:14;3.15;;;1.70;;
20411;SDS011;10365;52.578;8.138;2022-08-19T13:28:40;2.80;;;1.45;;
20411;SDS011;10365;52.578;8.138;2022-08-19T13:31:26;3.72;;;1.80;;
20411;SDS011;10365;52.578;8.138;2022-08-19T13:34:11;2.33;;;1.73;;
20411;SDS011;10365;52.578;8.138;2022-08-19T13:36:36;3.88;;;1.30;;
20411;SDS011;10365;52.578;8.138;2022-08-19T13:39:03;2.00;;;1.40;;
20411;SDS011;10365;52.578;8.138;2022-08-19T13:41:28;2.13;;;1.48;;
20411;SDS011;10365;52.578;8.138;2022-08-19T13:43:54;3.10;;;1.80;;
20411;SDS011;10365;52.578;8.138;2022-08-19T13:46:20;2.42;;;1.50;;
20411;SDS011;10365;52.578;8.138;2022-08-19T13:48:46;2.92;;;1.98;;
20411;SDS011;10365;52.578;8.138;2022-08-19T13:51:14;6.28;;;1.58;;
20411;SDS011;10365;52.578;8.138;2022-08-19T13:53:41;5.20;;;2.08;;
20411;SDS011;10365;52.578;8.138;2022-08-19T13:56:09;2.95;;;1.50;;
20411;SDS011;10365;52.578;8.138;2022-08-19T13:58:35;4.10;;;1.30;;
20411;SDS011;10365;52.578;8.138;2022-08-19T14:01:01;2.80;;;1.80;;
20411;SDS011;10365;52.578;8.138;2022-08-19T14:03:27;2.75;;;1.55;;
20411;SDS011;10365;52.578;8.138;2022-08-19T14:05:52;2.88;;;1.70;;
20411;SDS011;10365;52.578;8.138;2022-08-19T14:08:19;2.88;;;1.67;;
20411;SDS011;10365;52.578;8.138;2022-08-19T14:10:45;3.70;;;1.70;;
20411;SDS011;10365;52.578;8.138;2022-08-19T14:13:12;2.50;;;1.70;;
20411;SDS011;10365;52.578;8.138;2022-08-19T14:15:39;3.50;;;1.85;;
20411;SDS011;10365;52.578;8.138;2022-08-19T14:18:04;3.40;;;1.70;;
20411;SDS011;10365;52.578;8.138;2022-08-19T14:20:30;3.33;;;1.80;;
20411;SDS011;10365;52.578;8.138;2022-08-19T14:22:58;3.72;;;2.15;;
20411;SDS011;10365;52.578;8.138;2022-08-19T14:25:25;4.10;;;1.75;;
20411;SDS011;10365;52.578;8.138;2022-08-19T14:27:51;2.92;;;1.80;;
20411;SDS011;10365;52.578;8.138;2022-08-19T14:30:18;2.80;;;1.70;;
20411;SDS011;10365;52.578;8.138;2022-08-19T14:32:44;3.60;;;1.95;;
20411;SDS011;10365;52.578;8.138;2022-08-19T14:35:10;3.45;;;1.77;;
20411;SDS011;10365;52.578;8.138;2022-08-19T14:37:38;2.90;;;1.80;;
20411;SDS011;10365;52.578;8.138;2022-08-19T14:40:03;5.10;;;1.88;;
20411;SDS011;10365;52.578;8.138;2022-08-19T14:42:29;3.13;;;1.90;;